sensor_id;sensor_type;location;lat;lon;timestamp;pressure;altitude;pressure_sealevel;temperature;humidity
23339;BME280;11841;49.368;20.962;2023-02-07T00:01:08;97849.97;;;-10.15;75.66
23339;BME280;11841;49.368;20.962;2023-02-07T00:03:35;97853.38;;;-10.16;75.32
23339;BME280;11841;49.368;20.962;2023-02-07T00:06:13;97849.97;;;-10.16;75.13
23339;BME280;11841;49.368;20.962;2023-02-07T00:08:40;97839.69;;;-10.15;75.55
23339;BME280;11841;49.368;20.962;2023-02-07T00:11:08;97825.94;;;-10.12;76.49
23339;BME280;11841;49.368;20.962;2023-02-07T00:13:35;97833.63;;;-10.12;76.46
23339;BME280;11841;49.368;20.962;2023-02-07T00:16:02;97824.00;;;-10.06;75.67
23339;BME280;11841;49.368;20.962;2023-02-07T00:18:29;97824.84;;;-10.05;75.19
23339;BME280;11841;49.368;20.962;2023-02-07T00:20:57;97824.13;;;-10.09;75.67
23339;BME280;11841;49.368;20.962;2023-02-07T00:23:23;97813.66;;;-10.03;75.40
23339;BME280;11841;49.368;20.962;2023-02-07T00:25:50;97810.22;;;-10.02;75.20
23339;BME280;11841;49.368;20.962;2023-02-07T00:28:17;97801.81;;;-10.07;75.31
23339;BME280;11841;49.368;20.962;2023-02-07T00:30:43;97799.88;;;-9.99;76.08
23339;BME280;11841;49.368;20.962;2023-02-07T00:33:10;97806.75;;;-10.01;76.14
23339;BME280;11841;49.368;20.962;2023-02-07T00:35:36;97793.06;;;-10.00;75.95
23339;BME280;11841;49.368;20.962;2023-02-07T00:38:03;97799.00;;;-9.99;75.61
23339;BME280;11841;49.368;20.962;2023-02-07T00:40:30;97792.88;;;-9.93;75.64
23339;BME280;11841;49.368;20.962;2023-02-07T00:42:56;97794.19;;;-10.08;75.98
23339;BME280;11841;49.368;20.962;2023-02-07T00:45:23;97787.94;;;-10.00;75.62
23339;BME280;11841;49.368;20.962;2023-02-07T00:47:49;97796.22;;;-9.90;76.26
23339;BME280;11841;49.368;20.962;2023-02-07T00:50:16;97789.34;;;-9.89;75.07
23339;BME280;11841;49.368;20.962;2023-02-07T00:52:42;97787.66;;;-9.90;74.58
23339;BME280;11841;49.368;20.962;2023-02-07T00:55:09;97791.22;;;-9.94;75.62
23339;BME280;11841;49.368;20.962;2023-02-07T00:57:35;97787.13;;;-10.02;75.65
23339;BME280;11841;49.368;20.962;2023-02-07T01:00:02;97784.66;;;-10.05;75.54
23339;BME280;11841;49.368;20.962;2023-02-07T01:02:28;97784.56;;;-10.02;75.54
23339;BME280;11841;49.368;20.962;2023-02-07T01:04:55;97789.09;;;-10.10;74.55
23339;BME280;11841;49.368;20.962;2023-02-07T01:07:21;97783.25;;;-10.15;74.55
23339;BME280;11841;49.368;20.962;2023-02-07T01:09:48;97782.38;;;-10.14;75.80
23339;BME280;11841;49.368;20.962;2023-02-07T01:12:14;97778.94;;;-10.14;74.33
23339;BME280;11841;49.368;20.962;2023-02-07T01:14:41;97778.03;;;-10.12;74.88
23339;BME280;11841;49.368;20.962;2023-02-07T01:17:07;97782.88;;;-10.03;74.79
23339;BME280;11841;49.368;20.962;2023-02-07T01:19:33;97774.25;;;-10.00;74.94
23339;BME280;11841;49.368;20.962;2023-02-07T01:22:00;97772.53;;;-10.00;74.08
23339;BME280;11841;49.368;20.962;2023-02-07T01:24:26;97768.53;;;-10.08;74.08
23339;BME280;11841;49.368;20.962;2023-02-07T01:26:53;97761.19;;;-10.20;74.97
23339;BME280;11841;49.368;20.962;2023-02-07T01:29:19;97756.00;;;-10.19;74.64
23339;BME280;11841;49.368;20.962;2023-02-07T01:31:46;97745.56;;;-10.13;74.55
23339;BME280;11841;49.368;20.962;2023-02-07T01:34:13;97742.81;;;-10.07;74.20
23339;BME280;11841;49.368;20.962;2023-02-07T01:36:39;97746.94;;;-10.03;73.51
23339;BME280;11841;49.368;20.962;2023-02-07T01:39:06;97736.16;;;-10.12;73.61
23339;BME280;11841;49.368;20.962;2023-02-07T01:41:32;97755.91;;;-10.16;73.79
23339;BME280;11841;49.368;20.962;2023-02-07T01:44:00;97746.59;;;-10.18;72.99
23339;BME280;11841;49.368;20.962;2023-02-07T01:46:27;97742.47;;;-10.24;72.55
23339;BME280;11841;49.368;20.962;2023-02-07T01:48:55;97732.34;;;-10.30;73.53
23339;BME280;11841;49.368;20.962;2023-02-07T01:51:23;97726.47;;;-10.33;72.90
23339;BME280;11841;49.368;20.962;2023-02-07T01:53:52;97727.31;;;-10.33;73.04
23339;BME280;11841;49.368;20.962;2023-02-07T01:56:20;97730.50;;;-10.25;73.04
23339;BME280;11841;49.368;20.962;2023-02-07T01:58:56;97738.28;;;-10.28;73.85
23339;BME280;11841;49.368;20.962;2023-02-07T02:01:23;97737.75;;;-10.39;72.39
23339;BME280;11841;49.368;20.962;2023-02-07T02:03:52;97735.38;;;-10.46;73.55
23339;BME280;11841;49.368;20.962;2023-02-07T02:06:19;97730.34;;;-10.49;72.66
23339;BME280;11841;49.368;20.962;2023-02-07T02:08:46;97725.31;;;-10.52;72.20
23339;BME280;11841;49.368;20.962;2023-02-07T02:16:43;97733.28;;;-10.63;73.21
23339;BME280;11841;49.368;20.962;2023-02-07T02:19:25;97729.81;;;-10.62;72.93
23339;BME280;11841;49.368;20.962;2023-02-07T02:24:48;97734.34;;;-10.71;72.53
23339;BME280;11841;49.368;20.962;2023-02-07T02:35:30;97755.44;;;-10.94;71.79
23339;BME280;11841;49.368;20.962;2023-02-07T02:43:05;97737.16;;;-11.14;71.27
23339;BME280;11841;49.368;20.962;2023-02-07T02:45:39;97729.84;;;-11.29;71.69
23339;BME280;11841;49.368;20.962;2023-02-07T02:48:08;97739.38;;;-11.36;71.97
23339;BME280;11841;49.368;20.962;2023-02-07T02:50:35;97730.03;;;-11.38;72.23
23339;BME280;11841;49.368;20.962;2023-02-07T02:53:02;97742.84;;;-11.38;73.04
23339;BME280;11841;49.368;20.962;2023-02-07T03:01:23;97719.38;;;-11.20;72.95
23339;BME280;11841;49.368;20.962;2023-02-07T03:08:38;97741.16;;;-11.04;73.07
23339;BME280;11841;49.368;20.962;2023-02-07T03:11:10;97748.13;;;-11.09;72.42
23339;BME280;11841;49.368;20.962;2023-02-07T03:23:55;97770.63;;;-10.86;73.36
23339;BME280;11841;49.368;20.962;2023-02-07T03:26:22;97769.94;;;-10.93;74.24
23339;BME280;11841;49.368;20.962;2023-02-07T03:28:49;97759.00;;;-11.01;74.95
23339;BME280;11841;49.368;20.962;2023-02-07T03:31:18;97760.56;;;-10.94;75.15
23339;BME280;11841;49.368;20.962;2023-02-07T03:33:47;97751.13;;;-10.92;75.40
23339;BME280;11841;49.368;20.962;2023-02-07T03:36:16;97753.84;;;-10.98;75.07
23339;BME280;11841;49.368;20.962;2023-02-07T03:38:45;97756.25;;;-10.92;76.11
23339;BME280;11841;49.368;20.962;2023-02-07T03:41:20;97746.28;;;-11.04;75.51
23339;BME280;11841;49.368;20.962;2023-02-07T03:43:49;97746.97;;;-10.97;76.00
23339;BME280;11841;49.368;20.962;2023-02-07T03:46:16;97754.66;;;-10.97;76.31
23339;BME280;11841;49.368;20.962;2023-02-07T03:48:43;97742.41;;;-10.85;76.67
23339;BME280;11841;49.368;20.962;2023-02-07T03:51:09;97756.00;;;-10.83;76.68
23339;BME280;11841;49.368;20.962;2023-02-07T03:53:36;97754.25;;;-10.81;76.02
23339;BME280;11841;49.368;20.962;2023-02-07T03:56:02;97742.84;;;-10.69;76.19
23339;BME280;11841;49.368;20.962;2023-02-07T03:58:29;97745.38;;;-10.68;76.79
23339;BME280;11841;49.368;20.962;2023-02-07T04:00:56;97734.94;;;-10.62;77.53
23339;BME280;11841;49.368;20.962;2023-02-07T04:03:22;97746.09;;;-10.63;77.62
23339;BME280;11841;49.368;20.962;2023-02-07T04:05:49;97750.41;;;-10.65;76.77
23339;BME280;11841;49.368;20.962;2023-02-07T04:08:15;97754.69;;;-10.65;77.43
23339;BME280;11841;49.368;20.962;2023-02-07T04:10:42;97748.75;;;-10.66;77.00
23339;BME280;11841;49.368;20.962;2023-02-07T04:13:08;97752.84;;;-10.59;77.82
23339;BME280;11841;49.368;20.962;2023-02-07T04:15:35;97757.06;;;-10.58;77.80
23339;BME280;11841;49.368;20.962;2023-02-07T04:18:02;97743.31;;;-10.54;77.68
23339;BME280;11841;49.368;20.962;2023-02-07T04:20:28;97735.44;;;-10.48;77.61
23339;BME280;11841;49.368;20.962;2023-02-07T04:22:55;97736.16;;;-10.43;76.92
23339;BME280;11841;49.368;20.962;2023-02-07T04:25:21;97737.72;;;-10.37;76.56
23339;BME280;11841;49.368;20.962;2023-02-07T04:27:48;97740.19;;;-10.34;76.67
23339;BME280;11841;49.368;20.962;2023-02-07T04:30:14;97739.94;;;-10.25;77.02
23339;BME280;11841;49.368;20.962;2023-02-07T04:32:41;97745.97;;;-10.28;76.27
23339;BME280;11841;49.368;20.962;2023-02-07T04:35:07;97747.03;;;-10.35;77.51
23339;BME280;11841;49.368;20.962;2023-02-07T04:37:34;97743.38;;;-10.26;78.32
23339;BME280;11841;49.368;20.962;2023-02-07T04:40:00;97736.41;;;-10.21;77.63
23339;BME280;11841;49.368;20.962;2023-02-07T04:42:27;97746.53;;;-10.17;77.89
23339;BME280;11841;49.368;20.962;2023-02-07T04:44:53;97742.09;;;-10.10;77.78
23339;BME280;11841;49.368;20.962;2023-02-07T04:47:20;97733.50;;;-10.09;77.58
23339;BME280;11841;49.368;20.962;2023-02-07T04:49:46;97744.81;;;-10.16;77.31
23339;BME280;11841;49.368;20.962;2023-02-07T04:52:13;97753.38;;;-10.17;78.04
23339;BME280;11841;49.368;20.962;2023-02-07T04:54:39;97761.72;;;-10.09;77.25
23339;BME280;11841;49.368;20.962;2023-02-07T04:57:06;97755.44;;;-10.01;77.43
23339;BME280;11841;49.368;20.962;2023-02-07T04:59:32;97755.28;;;-9.94;78.18
23339;BME280;11841;49.368;20.962;2023-02-07T05:01:59;97757.72;;;-9.90;77.87
23339;BME280;11841;49.368;20.962;2023-02-07T05:04:25;97755.72;;;-9.80;77.20
23339;BME280;11841;49.368;20.962;2023-02-07T05:06:52;97758.97;;;-9.75;77.31
23339;BME280;11841;49.368;20.962;2023-02-07T05:09:18;97748.00;;;-9.80;77.85
23339;BME280;11841;49.368;20.962;2023-02-07T05:11:45;97748.47;;;-9.96;77.10
23339;BME280;11841;49.368;20.962;2023-02-07T05:14:11;97750.22;;;-9.98;77.83
23339;BME280;11841;49.368;20.962;2023-02-07T05:16:38;97757.34;;;-10.07;78.40
23339;BME280;11841;49.368;20.962;2023-02-07T05:19:04;97768.19;;;-9.98;78.45
23339;BME280;11841;49.368;20.962;2023-02-07T05:21:31;97764.69;;;-9.95;78.96
23339;BME280;11841;49.368;20.962;2023-02-07T05:23:58;97769.63;;;-9.87;78.96
23339;BME280;11841;49.368;20.962;2023-02-07T05:26:24;97759.97;;;-9.79;78.86
23339;BME280;11841;49.368;20.962;2023-02-07T05:28:50;97767.47;;;-9.73;78.05
23339;BME280;11841;49.368;20.962;2023-02-07T05:31:17;97760.13;;;-9.85;78.15
23339;BME280;11841;49.368;20.962;2023-02-07T05:33:43;97766.78;;;-9.78;77.98
23339;BME280;11841;49.368;20.962;2023-02-07T05:36:10;97770.50;;;-9.88;77.90
23339;BME280;11841;49.368;20.962;2023-02-07T05:38:36;97767.13;;;-9.90;78.41
23339;BME280;11841;49.368;20.962;2023-02-07T05:41:03;97763.03;;;-9.96;78.62
23339;BME280;11841;49.368;20.962;2023-02-07T05:43:29;97758.47;;;-9.86;79.08
23339;BME280;11841;49.368;20.962;2023-02-07T05:45:56;97754.84;;;-9.79;78.54
23339;BME280;11841;49.368;20.962;2023-02-07T05:48:22;97762.81;;;-9.88;78.80
23339;BME280;11841;49.368;20.962;2023-02-07T05:50:49;97770.59;;;-9.91;79.13
23339;BME280;11841;49.368;20.962;2023-02-07T05:53:15;97762.84;;;-9.90;78.42
23339;BME280;11841;49.368;20.962;2023-02-07T05:55:42;97761.38;;;-9.99;78.55
23339;BME280;11841;49.368;20.962;2023-02-07T05:58:08;97772.66;;;-10.04;79.22
23339;BME280;11841;49.368;20.962;2023-02-07T06:00:35;97768.31;;;-10.02;79.27
23339;BME280;11841;49.368;20.962;2023-02-07T06:03:01;97772.59;;;-10.03;78.66
23339;BME280;11841;49.368;20.962;2023-02-07T06:05:28;97772.81;;;-10.09;78.96
23339;BME280;11841;49.368;20.962;2023-02-07T06:07:57;97780.56;;;-10.10;78.53
23339;BME280;11841;49.368;20.962;2023-02-07T06:10:24;97764.03;;;-10.02;79.08
23339;BME280;11841;49.368;20.962;2023-02-07T06:12:50;97765.72;;;-10.01;78.81
23339;BME280;11841;49.368;20.962;2023-02-07T06:15:17;97762.56;;;-10.09;78.75
23339;BME280;11841;49.368;20.962;2023-02-07T06:17:43;97755.34;;;-9.98;78.65
23339;BME280;11841;49.368;20.962;2023-02-07T06:20:10;97756.97;;;-9.93;78.94
23339;BME280;11841;49.368;20.962;2023-02-07T06:22:36;97763.81;;;-9.94;78.63
23339;BME280;11841;49.368;20.962;2023-02-07T06:25:03;97761.75;;;-9.81;78.31
23339;BME280;11841;49.368;20.962;2023-02-07T06:27:29;97757.31;;;-9.76;78.61
23339;BME280;11841;49.368;20.962;2023-02-07T06:29:56;97765.88;;;-9.76;78.23
23339;BME280;11841;49.368;20.962;2023-02-07T06:32:22;97759.69;;;-9.70;78.49
23339;BME280;11841;49.368;20.962;2023-02-07T06:34:49;97763.97;;;-9.69;79.10
23339;BME280;11841;49.368;20.962;2023-02-07T06:37:15;97773.78;;;-9.83;78.18
23339;BME280;11841;49.368;20.962;2023-02-07T06:39:41;97780.59;;;-9.82;79.65
23339;BME280;11841;49.368;20.962;2023-02-07T06:42:08;97766.16;;;-9.86;78.76
23339;BME280;11841;49.368;20.962;2023-02-07T06:44:34;97777.25;;;-9.84;79.16
23339;BME280;11841;49.368;20.962;2023-02-07T06:47:01;97776.22;;;-9.79;79.12
23339;BME280;11841;49.368;20.962;2023-02-07T06:49:27;97778.50;;;-9.70;79.83
23339;BME280;11841;49.368;20.962;2023-02-07T06:51:54;97780.31;;;-9.73;79.82
23339;BME280;11841;49.368;20.962;2023-02-07T06:54:20;97783.69;;;-9.71;79.37
23339;BME280;11841;49.368;20.962;2023-02-07T06:56:47;97774.44;;;-9.77;79.75
23339;BME280;11841;49.368;20.962;2023-02-07T06:59:13;97784.59;;;-9.72;79.90
23339;BME280;11841;49.368;20.962;2023-02-07T07:01:40;97780.16;;;-9.67;79.49
23339;BME280;11841;49.368;20.962;2023-02-07T07:04:07;97783.34;;;-9.59;80.46
23339;BME280;11841;49.368;20.962;2023-02-07T07:06:34;97786.56;;;-9.53;80.02
23339;BME280;11841;49.368;20.962;2023-02-07T07:09:00;97787.63;;;-9.60;79.92
23339;BME280;11841;49.368;20.962;2023-02-07T07:11:26;97782.31;;;-9.54;80.00
23339;BME280;11841;49.368;20.962;2023-02-07T07:13:53;97784.75;;;-9.49;80.69
23339;BME280;11841;49.368;20.962;2023-02-07T07:16:19;97777.19;;;-9.54;80.02
23339;BME280;11841;49.368;20.962;2023-02-07T07:18:46;97787.34;;;-9.51;80.15
23339;BME280;11841;49.368;20.962;2023-02-07T07:21:12;97775.16;;;-9.44;80.70
23339;BME280;11841;49.368;20.962;2023-02-07T07:23:39;97775.72;;;-9.33;80.36
23339;BME280;11841;49.368;20.962;2023-02-07T07:26:05;97770.25;;;-9.24;80.45
23339;BME280;11841;49.368;20.962;2023-02-07T07:28:32;97769.34;;;-9.22;80.24
23339;BME280;11841;49.368;20.962;2023-02-07T07:31:05;97764.91;;;-9.17;80.58
23339;BME280;11841;49.368;20.962;2023-02-07T07:33:32;97763.34;;;-9.22;80.82
23339;BME280;11841;49.368;20.962;2023-02-07T07:35:59;97756.25;;;-9.14;81.10
23339;BME280;11841;49.368;20.962;2023-02-07T07:38:26;97759.13;;;-9.23;81.05
23339;BME280;11841;49.368;20.962;2023-02-07T07:40:53;97756.44;;;-9.20;80.77
23339;BME280;11841;49.368;20.962;2023-02-07T07:43:19;97754.56;;;-9.15;81.49
23339;BME280;11841;49.368;20.962;2023-02-07T07:45:50;97746.72;;;-9.11;81.75
23339;BME280;11841;49.368;20.962;2023-02-07T07:48:17;97749.91;;;-9.03;81.36
23339;BME280;11841;49.368;20.962;2023-02-07T07:50:43;97753.22;;;-9.01;81.19
23339;BME280;11841;49.368;20.962;2023-02-07T07:53:10;97745.28;;;-8.93;81.91
23339;BME280;11841;49.368;20.962;2023-02-07T07:55:36;97753.88;;;-8.94;82.41
23339;BME280;11841;49.368;20.962;2023-02-07T07:58:03;97751.28;;;-8.93;81.91
23339;BME280;11841;49.368;20.962;2023-02-07T08:00:30;97738.16;;;-8.85;81.79
23339;BME280;11841;49.368;20.962;2023-02-07T08:02:57;97746.66;;;-8.83;82.15
23339;BME280;11841;49.368;20.962;2023-02-07T08:05:23;97743.31;;;-8.85;81.99
23339;BME280;11841;49.368;20.962;2023-02-07T08:07:49;97732.72;;;-8.76;82.59
23339;BME280;11841;49.368;20.962;2023-02-07T08:10:16;97734.56;;;-8.80;82.58
23339;BME280;11841;49.368;20.962;2023-02-07T08:12:42;97729.06;;;-8.69;83.04
23339;BME280;11841;49.368;20.962;2023-02-07T08:15:09;97731.06;;;-8.52;82.64
23339;BME280;11841;49.368;20.962;2023-02-07T08:17:36;97736.50;;;-8.37;82.30
23339;BME280;11841;49.368;20.962;2023-02-07T08:20:03;97737.88;;;-8.27;82.28
23339;BME280;11841;49.368;20.962;2023-02-07T08:22:30;97736.91;;;-8.24;82.25
23339;BME280;11841;49.368;20.962;2023-02-07T08:24:57;97735.81;;;-8.19;81.91
23339;BME280;11841;49.368;20.962;2023-02-07T08:27:23;97743.34;;;-8.13;82.10
23339;BME280;11841;49.368;20.962;2023-02-07T08:29:50;97745.06;;;-8.13;82.85
23339;BME280;11841;49.368;20.962;2023-02-07T08:32:16;97742.19;;;-8.06;83.20
23339;BME280;11841;49.368;20.962;2023-02-07T08:34:42;97731.81;;;-8.03;83.15
23339;BME280;11841;49.368;20.962;2023-02-07T08:37:10;97737.66;;;-7.98;83.31
23339;BME280;11841;49.368;20.962;2023-02-07T08:39:37;97740.31;;;-8.01;83.79
23339;BME280;11841;49.368;20.962;2023-02-07T08:42:03;97733.25;;;-7.96;83.47
23339;BME280;11841;49.368;20.962;2023-02-07T08:44:36;97735.69;;;-7.91;84.27
23339;BME280;11841;49.368;20.962;2023-02-07T08:47:02;97738.06;;;-7.87;83.56
23339;BME280;11841;49.368;20.962;2023-02-07T08:49:29;97742.22;;;-7.83;83.41
23339;BME280;11841;49.368;20.962;2023-02-07T08:51:56;97750.69;;;-7.79;84.24
23339;BME280;11841;49.368;20.962;2023-02-07T08:54:22;97747.44;;;-7.84;84.29
23339;BME280;11841;49.368;20.962;2023-02-07T08:56:49;97741.13;;;-7.76;84.05
23339;BME280;11841;49.368;20.962;2023-02-07T08:59:15;97750.38;;;-7.72;84.61
23339;BME280;11841;49.368;20.962;2023-02-07T09:01:41;97749.59;;;-7.74;84.26
23339;BME280;11841;49.368;20.962;2023-02-07T09:04:08;97749.25;;;-7.65;84.42
23339;BME280;11841;49.368;20.962;2023-02-07T09:06:36;97744.34;;;-7.71;84.98
23339;BME280;11841;49.368;20.962;2023-02-07T09:09:03;97755.59;;;-7.73;85.29
23339;BME280;11841;49.368;20.962;2023-02-07T09:11:30;97747.72;;;-7.69;84.93
23339;BME280;11841;49.368;20.962;2023-02-07T09:13:56;97743.94;;;-7.60;85.12
23339;BME280;11841;49.368;20.962;2023-02-07T09:16:23;97753.22;;;-7.56;85.74
23339;BME280;11841;49.368;20.962;2023-02-07T09:18:50;97745.22;;;-7.49;85.22
23339;BME280;11841;49.368;20.962;2023-02-07T09:21:17;97745.84;;;-7.42;85.88
23339;BME280;11841;49.368;20.962;2023-02-07T09:23:44;97748.16;;;-7.36;85.60
23339;BME280;11841;49.368;20.962;2023-02-07T09:26:14;97742.78;;;-7.30;85.49
23339;BME280;11841;49.368;20.962;2023-02-07T09:28:42;97736.31;;;-7.18;84.93
23339;BME280;11841;49.368;20.962;2023-02-07T09:31:09;97737.09;;;-7.16;85.86
23339;BME280;11841;49.368;20.962;2023-02-07T09:33:36;97728.22;;;-7.09;85.86
23339;BME280;11841;49.368;20.962;2023-02-07T09:36:03;97740.66;;;-6.99;86.23
23339;BME280;11841;49.368;20.962;2023-02-07T09:38:30;97733.00;;;-7.00;86.44
23339;BME280;11841;49.368;20.962;2023-02-07T09:40:57;97732.63;;;-6.91;86.05
23339;BME280;11841;49.368;20.962;2023-02-07T09:43:27;97727.19;;;-6.84;85.90
23339;BME280;11841;49.368;20.962;2023-02-07T09:46:04;97722.84;;;-6.83;86.35
23339;BME280;11841;49.368;20.962;2023-02-07T09:48:42;97723.41;;;-6.77;86.99
23339;BME280;11841;49.368;20.962;2023-02-07T09:51:11;97708.59;;;-6.72;87.10
23339;BME280;11841;49.368;20.962;2023-02-07T09:56:05;97719.81;;;-6.53;87.41
23339;BME280;11841;49.368;20.962;2023-02-07T10:01:04;97718.72;;;-6.47;88.32
23339;BME280;11841;49.368;20.962;2023-02-07T10:03:31;97716.78;;;-6.42;87.54
23339;BME280;11841;49.368;20.962;2023-02-07T10:06:02;97720.03;;;-6.37;87.99
23339;BME280;11841;49.368;20.962;2023-02-07T10:08:44;97717.13;;;-6.30;88.17
23339;BME280;11841;49.368;20.962;2023-02-07T10:21:44;97699.09;;;-5.92;87.56
23339;BME280;11841;49.368;20.962;2023-02-07T10:24:20;97698.75;;;-5.85;87.51
23339;BME280;11841;49.368;20.962;2023-02-07T10:26:51;97694.44;;;-5.84;88.48
23339;BME280;11841;49.368;20.962;2023-02-07T10:29:34;97697.53;;;-5.78;88.08
23339;BME280;11841;49.368;20.962;2023-02-07T10:32:16;97695.44;;;-5.70;89.17
23339;BME280;11841;49.368;20.962;2023-02-07T10:34:45;97707.09;;;-5.61;88.76
23339;BME280;11841;49.368;20.962;2023-02-07T10:37:17;97711.84;;;-5.52;89.15
23339;BME280;11841;49.368;20.962;2023-02-07T10:39:56;97702.06;;;-5.46;88.47
23339;BME280;11841;49.368;20.962;2023-02-07T10:42:26;97695.63;;;-5.37;88.16
23339;BME280;11841;49.368;20.962;2023-02-07T10:44:53;97692.78;;;-5.31;88.21
23339;BME280;11841;49.368;20.962;2023-02-07T10:47:19;97697.56;;;-5.24;88.46
23339;BME280;11841;49.368;20.962;2023-02-07T10:49:46;97694.63;;;-5.16;89.02
23339;BME280;11841;49.368;20.962;2023-02-07T10:52:25;97683.88;;;-5.09;88.91
23339;BME280;11841;49.368;20.962;2023-02-07T10:54:54;97682.84;;;-5.05;90.28
23339;BME280;11841;49.368;20.962;2023-02-07T10:57:20;97681.72;;;-4.99;89.80
23339;BME280;11841;49.368;20.962;2023-02-07T10:59:47;97674.56;;;-4.94;89.53
23339;BME280;11841;49.368;20.962;2023-02-07T11:04:48;97674.94;;;-4.84;89.66
23339;BME280;11841;49.368;20.962;2023-02-07T11:07:15;97672.97;;;-4.79;90.08
23339;BME280;11841;49.368;20.962;2023-02-07T11:09:41;97667.63;;;-4.76;90.17
23339;BME280;11841;49.368;20.962;2023-02-07T11:12:14;97667.56;;;-4.75;90.32
23339;BME280;11841;49.368;20.962;2023-02-07T11:14:44;97669.16;;;-4.72;90.56
23339;BME280;11841;49.368;20.962;2023-02-07T11:17:23;97670.69;;;-4.68;90.60
23339;BME280;11841;49.368;20.962;2023-02-07T11:19:50;97673.88;;;-4.63;90.14
23339;BME280;11841;49.368;20.962;2023-02-07T11:22:18;97675.22;;;-4.56;89.63
23339;BME280;11841;49.368;20.962;2023-02-07T11:24:45;97669.91;;;-4.53;89.71
23339;BME280;11841;49.368;20.962;2023-02-07T11:27:13;97663.53;;;-4.46;89.22
23339;BME280;11841;49.368;20.962;2023-02-07T11:29:52;97663.13;;;-4.39;89.13
23339;BME280;11841;49.368;20.962;2023-02-07T11:32:18;97663.63;;;-4.32;89.13
23339;BME280;11841;49.368;20.962;2023-02-07T11:34:56;97663.34;;;-4.26;88.85
23339;BME280;11841;49.368;20.962;2023-02-07T11:39:52;97659.34;;;-4.16;89.34
23339;BME280;11841;49.368;20.962;2023-02-07T11:42:20;97661.59;;;-4.10;89.04
23339;BME280;11841;49.368;20.962;2023-02-07T11:44:48;97654.50;;;-4.07;89.26
23339;BME280;11841;49.368;20.962;2023-02-07T11:47:25;97655.19;;;-4.03;88.63
23339;BME280;11841;49.368;20.962;2023-02-07T11:49:56;97653.09;;;-3.97;89.11
23339;BME280;11841;49.368;20.962;2023-02-07T11:52:24;97647.75;;;-3.94;89.18
23339;BME280;11841;49.368;20.962;2023-02-07T11:54:55;97631.97;;;-3.89;89.13
23339;BME280;11841;49.368;20.962;2023-02-07T11:57:23;97644.69;;;-3.85;89.23
23339;BME280;11841;49.368;20.962;2023-02-07T12:02:21;97637.31;;;-3.77;89.18
23339;BME280;11841;49.368;20.962;2023-02-07T12:04:48;97629.31;;;-3.72;88.89
23339;BME280;11841;49.368;20.962;2023-02-07T12:07:22;97629.13;;;-3.69;88.93
23339;BME280;11841;49.368;20.962;2023-02-07T12:09:55;97629.06;;;-3.67;89.01
23339;BME280;11841;49.368;20.962;2023-02-07T12:15:15;97632.22;;;-3.62;89.02
23339;BME280;11841;49.368;20.962;2023-02-07T12:20:13;97635.31;;;-3.56;89.16
23339;BME280;11841;49.368;20.962;2023-02-07T12:22:47;97641.16;;;-3.52;89.07
23339;BME280;11841;49.368;20.962;2023-02-07T12:25:36;97639.16;;;-3.47;89.07
23339;BME280;11841;49.368;20.962;2023-02-07T12:28:09;97645.78;;;-3.42;89.02
23339;BME280;11841;49.368;20.962;2023-02-07T12:30:43;97648.19;;;-3.39;88.86
23339;BME280;11841;49.368;20.962;2023-02-07T12:33:14;97651.53;;;-3.37;88.72
23339;BME280;11841;49.368;20.962;2023-02-07T12:38:37;97649.53;;;-3.32;88.83
23339;BME280;11841;49.368;20.962;2023-02-07T12:41:12;97644.16;;;-3.29;88.89
23339;BME280;11841;49.368;20.962;2023-02-07T12:43:55;97650.38;;;-3.31;89.04
23339;BME280;11841;49.368;20.962;2023-02-07T12:54:10;97650.19;;;-3.28;89.07
23339;BME280;11841;49.368;20.962;2023-02-07T12:59:19;97663.06;;;-3.27;89.25
23339;BME280;11841;49.368;20.962;2023-02-07T13:04:41;97658.81;;;-3.28;89.22
23339;BME280;11841;49.368;20.962;2023-02-07T13:10:00;97666.59;;;-3.28;89.48
23339;BME280;11841;49.368;20.962;2023-02-07T13:12:31;97664.25;;;-3.32;90.02
23339;BME280;11841;49.368;20.962;2023-02-07T13:15:07;97670.44;;;-3.35;90.33
23339;BME280;11841;49.368;20.962;2023-02-07T13:20:23;97671.94;;;-3.31;90.53
23339;BME280;11841;49.368;20.962;2023-02-07T13:22:57;97664.09;;;-3.29;90.22
23339;BME280;11841;49.368;20.962;2023-02-07T13:25:32;97675.28;;;-3.29;90.39
23339;BME280;11841;49.368;20.962;2023-02-07T13:28:02;97673.81;;;-3.33;90.54
23339;BME280;11841;49.368;20.962;2023-02-07T13:30:30;97665.94;;;-3.31;90.35
23339;BME280;11841;49.368;20.962;2023-02-07T13:32:59;97669.97;;;-3.26;90.33
23339;BME280;11841;49.368;20.962;2023-02-07T13:35:29;97671.78;;;-3.28;90.47
23339;BME280;11841;49.368;20.962;2023-02-07T13:40:40;97671.78;;;-3.28;90.14
23339;BME280;11841;49.368;20.962;2023-02-07T13:45:47;97678.47;;;-3.24;90.37
23339;BME280;11841;49.368;20.962;2023-02-07T13:50:52;97674.78;;;-3.20;89.93
23339;BME280;11841;49.368;20.962;2023-02-07T13:55:50;97674.44;;;-3.14;89.53
23339;BME280;11841;49.368;20.962;2023-02-07T14:01:24;97676.78;;;-3.09;89.00
23339;BME280;11841;49.368;20.962;2023-02-07T14:04:01;97670.56;;;-3.07;88.47
23339;BME280;11841;49.368;20.962;2023-02-07T14:06:29;97679.47;;;-3.11;88.43
23339;BME280;11841;49.368;20.962;2023-02-07T14:09:44;97664.63;;;-3.09;88.44
23339;BME280;11841;49.368;20.962;2023-02-07T14:11:46;97672.41;;;-3.09;88.71
23339;BME280;11841;49.368;20.962;2023-02-07T14:16:54;97660.78;;;-3.02;88.22
23339;BME280;11841;49.368;20.962;2023-02-07T14:25:16;97652.66;;;-2.96;87.84
23339;BME280;11841;49.368;20.962;2023-02-07T14:30:18;97640.84;;;-3.01;88.60
23339;BME280;11841;49.368;20.962;2023-02-07T14:37:54;97653.69;;;-3.14;89.72
23339;BME280;11841;49.368;20.962;2023-02-07T14:45:43;97646.13;;;-3.03;89.45
23339;BME280;11841;49.368;20.962;2023-02-07T14:50:56;97662.47;;;-3.01;89.60
23339;BME280;11841;49.368;20.962;2023-02-07T14:53:23;97658.84;;;-2.98;89.60
23339;BME280;11841;49.368;20.962;2023-02-07T14:55:52;97659.69;;;-2.98;89.64
23339;BME280;11841;49.368;20.962;2023-02-07T15:00:50;97666.72;;;-3.00;89.86
23339;BME280;11841;49.368;20.962;2023-02-07T15:03:19;97663.22;;;-2.99;89.77
23339;BME280;11841;49.368;20.962;2023-02-07T15:05:52;97672.09;;;-3.03;90.43